createdAt,value
2017-12-21T00:01:21.050Z,93.91
2017-12-21T00:07:24.710Z,93.72
2017-12-21T00:13:28.238Z,93.71
2017-12-21T00:19:31.709Z,93.83
2017-12-21T00:25:35.995Z,93.90
2017-12-21T00:31:39.514Z,93.84
2017-12-21T00:37:44.493Z,93.99
2017-12-21T00:43:48.000Z,93.98
2017-12-21T00:49:51.799Z,93.99
2017-12-21T00:55:55.471Z,93.93
2017-12-21T01:01:59.822Z,94.02
2017-12-21T01:08:03.326Z,94.05
2017-12-21T01:14:07.581Z,93.98
2017-12-21T01:20:11.837Z,93.85
2017-12-21T01:26:15.328Z,93.86
2017-12-21T01:32:18.804Z,93.65
2017-12-21T01:38:22.483Z,93.67
2017-12-21T01:44:26.084Z,93.68
2017-12-21T01:50:30.338Z,93.70
2017-12-21T01:56:33.832Z,93.75
2017-12-21T02:02:38.130Z,93.82
2017-12-21T02:08:41.621Z,93.92
2017-12-21T02:14:46.603Z,93.84
2017-12-21T02:20:50.262Z,93.79
2017-12-21T02:26:54.063Z,93.94
2017-12-21T02:32:57.484Z,93.91
2017-12-21T02:39:00.989Z,93.88
2017-12-21T02:45:04.507Z,93.86
2017-12-21T02:51:08.758Z,93.90
2017-12-21T02:57:12.239Z,93.85
2017-12-21T03:03:15.835Z,93.77
2017-12-21T03:09:19.343Z,93.69
2017-12-21T03:15:23.993Z,93.65
2017-12-21T03:21:28.253Z,93.66
2017-12-21T03:27:31.901Z,93.71
2017-12-21T03:33:35.417Z,93.70
2017-12-21T03:39:38.909Z,93.52
2017-12-21T03:45:42.377Z,93.63
2017-12-21T03:51:45.831Z,93.64
2017-12-21T03:57:49.381Z,93.58
2017-12-21T04:03:53.793Z,93.79
2017-12-21T04:09:57.332Z,93.85
2017-12-21T04:16:01.647Z,93.76
2017-12-21T04:22:05.179Z,93.74
2017-12-21T04:28:09.426Z,93.85
2017-12-21T04:34:12.949Z,94.04
2017-12-21T04:40:16.557Z,94.04
2017-12-21T04:46:21.029Z,94.04
2017-12-21T04:52:24.739Z,93.98
2017-12-21T04:58:28.319Z,93.86
2017-12-21T05:04:31.788Z,93.91
2017-12-21T05:10:35.444Z,94.03
2017-12-21T05:16:38.916Z,94.06
2017-12-21T05:22:43.230Z,94.22
2017-12-21T05:28:47.478Z,94.03
2017-12-21T05:34:51.071Z,93.97
2017-12-21T05:40:54.961Z,93.98
2017-12-21T05:46:59.499Z,94.12
2017-12-21T05:53:02.994Z,93.97
2017-12-21T05:59:06.471Z,94.03
2017-12-21T06:05:10.715Z,94.05
2017-12-21T06:11:14.222Z,94.15
2017-12-21T06:17:17.818Z,94.19
2017-12-21T06:23:22.698Z,94.20
2017-12-21T06:29:26.387Z,94.12
2017-12-21T06:35:30.659Z,94.11
2017-12-21T06:41:34.952Z,94.19
2017-12-21T06:47:38.663Z,94.25
2017-12-21T06:53:42.172Z,94.24
2017-12-21T06:59:45.830Z,94.16
2017-12-21T07:05:49.297Z,93.98
2017-12-21T07:11:53.219Z,93.87
2017-12-21T07:17:57.479Z,94.09
2017-12-21T07:24:02.507Z,94.08
2017-12-21T07:30:06.007Z,94.05
2017-12-21T07:36:09.499Z,94.24
2017-12-21T07:42:13.766Z,94.13
2017-12-21T07:48:18.045Z,94.40
2017-12-21T07:54:22.549Z,94.46
2017-12-21T08:00:26.048Z,94.51
2017-12-21T08:06:29.544Z,94.30
2017-12-21T08:12:33.046Z,94.28
2017-12-21T08:18:36.628Z,94.17
2017-12-21T08:24:41.073Z,94.23
2017-12-21T08:30:44.575Z,94.28
2017-12-21T08:36:48.119Z,94.09
2017-12-21T08:42:52.390Z,94.08
2017-12-21T08:48:56.615Z,94.07
2017-12-21T08:55:00.091Z,93.84
2017-12-21T09:01:03.568Z,93.71
2017-12-21T09:07:07.822Z,93.38
2017-12-21T09:13:11.294Z,93.36
2017-12-21T09:19:15.670Z,93.23
2017-12-21T09:25:19.963Z,93.19
2017-12-21T09:31:24.528Z,93.28
2017-12-21T09:37:28.347Z,93.22
2017-12-21T09:43:31.828Z,93.14
2017-12-21T09:49:36.081Z,93.28
2017-12-21T09:55:39.586Z,93.16
2017-12-21T10:01:43.130Z,93.29
2017-12-21T10:07:46.625Z,92.90
2017-12-21T10:13:50.140Z,92.64
2017-12-21T10:19:54.058Z,92.82
2017-12-21T10:25:57.547Z,93.42
2017-12-21T10:32:01.808Z,93.78
2017-12-21T10:38:06.060Z,93.63
2017-12-21T10:44:09.545Z,93.37
2017-12-21T10:50:13.817Z,93.22
2017-12-21T10:56:17.358Z,92.81
2017-12-21T11:02:21.713Z,92.27
2017-12-21T11:08:26.231Z,92.14
2017-12-21T11:14:29.674Z,91.81
2017-12-21T11:20:33.950Z,91.57
2017-12-21T11:26:38.507Z,91.60
2017-12-21T11:32:42.229Z,91.91
2017-12-21T11:38:45.716Z,92.09
2017-12-21T11:44:49.363Z,92.00
2017-12-21T11:50:53.549Z,91.84
2017-12-21T11:56:57.183Z,91.54
2017-12-21T12:03:00.722Z,91.26
2017-12-21T12:09:04.196Z,91.56
2017-12-21T12:15:07.755Z,91.89
2017-12-21T12:21:11.356Z,92.07
2017-12-21T12:27:14.857Z,92.48
2017-12-21T12:33:18.376Z,92.65
2017-12-21T12:39:22.778Z,93.26
2017-12-21T12:45:26.340Z,93.72
2017-12-21T12:51:29.908Z,94.13
2017-12-21T12:57:33.424Z,94.38
2017-12-21T13:03:36.908Z,94.53
2017-12-21T13:09:40.542Z,94.68
2017-12-21T13:15:44.052Z,94.58
2017-12-21T13:21:48.322Z,94.33
2017-12-21T13:27:52.595Z,94.24
2017-12-21T13:33:57.049Z,94.23
2017-12-21T13:40:00.498Z,94.20
2017-12-21T13:46:03.970Z,94.07
2017-12-21T13:52:08.209Z,93.91
2017-12-21T13:58:11.740Z,93.94
2017-12-21T14:04:15.250Z,94.37
2017-12-21T14:10:18.725Z,94.86
2017-12-21T14:16:22.355Z,95.12
2017-12-21T14:22:25.965Z,95.27
2017-12-21T14:28:29.675Z,95.43
2017-12-21T14:34:33.940Z,95.51
2017-12-21T14:40:37.436Z,95.52
2017-12-21T14:46:40.921Z,95.38
2017-12-21T14:52:44.419Z,95.29
2017-12-21T14:58:48.682Z,95.30
2017-12-21T15:04:53.169Z,95.34
2017-12-21T15:10:57.439Z,95.29
2017-12-21T15:17:01.673Z,95.22
2017-12-21T15:23:05.200Z,95.01
2017-12-21T15:29:08.668Z,95.01
2017-12-21T15:35:12.196Z,95.22
2017-12-21T15:41:15.680Z,95.64
2017-12-21T15:47:25.423Z,95.62
2017-12-21T15:53:29.806Z,95.71
2017-12-21T15:59:33.346Z,95.64
2017-12-21T16:05:36.871Z,95.44
2017-12-21T16:11:40.388Z,95.41
2017-12-21T16:17:44.664Z,95.23
2017-12-21T16:23:48.919Z,95.15
2017-12-21T16:29:53.335Z,94.96
2017-12-21T16:35:57.702Z,95.02
2017-12-21T16:42:01.260Z,95.08
2017-12-21T16:48:04.747Z,95.00
2017-12-21T16:54:08.286Z,94.94
2017-12-21T17:00:11.770Z,94.82
2017-12-21T17:06:15.242Z,94.75
2017-12-21T17:12:18.783Z,94.67
2017-12-21T17:18:23.257Z,94.62
2017-12-21T17:24:26.725Z,94.37
2017-12-21T17:30:30.253Z,94.33
2017-12-21T17:36:33.771Z,94.46
2017-12-21T17:42:37.242Z,94.57
2017-12-21T17:48:40.716Z,94.52
2017-12-21T17:54:44.194Z,94.37
2017-12-21T18:00:47.696Z,94.16
2017-12-21T18:06:51.405Z,93.97
2017-12-21T18:12:55.007Z,93.89
2017-12-21T18:18:58.521Z,93.41
2017-12-21T18:25:02.024Z,93.65
2017-12-21T18:31:05.570Z,93.41
2017-12-21T18:37:09.901Z,93.63
2017-12-21T18:43:13.406Z,93.32
2017-12-21T18:49:16.881Z,93.42
2017-12-21T18:55:20.444Z,93.60
2017-12-21T19:01:24.196Z,93.87
2017-12-21T19:07:27.710Z,94.07
2017-12-21T19:13:31.282Z,94.13
2017-12-21T19:19:34.768Z,93.89
2017-12-21T19:25:38.281Z,93.83
2017-12-21T19:31:41.746Z,93.24
2017-12-21T19:37:45.233Z,92.86
2017-12-21T19:43:48.720Z,92.67
2017-12-21T19:49:53.042Z,93.17
2017-12-21T19:55:56.565Z,93.67
2017-12-21T20:02:00.096Z,94.11
2017-12-21T20:08:04.375Z,95.25
2017-12-21T20:14:08.950Z,95.30
2017-12-21T20:20:13.292Z,95.17
2017-12-21T20:26:16.806Z,95.35
2017-12-21T20:32:20.448Z,94.99
2017-12-21T20:38:24.337Z,94.84
2017-12-21T20:44:27.827Z,94.83
2017-12-21T20:50:31.344Z,94.36
2017-12-21T20:56:34.838Z,93.62
2017-12-21T21:02:38.355Z,94.17
2017-12-21T21:08:41.880Z,94.49
2017-12-21T21:14:46.315Z,94.50
2017-12-21T21:20:49.931Z,94.07
2017-12-21T21:26:53.563Z,94.57
2017-12-21T21:32:57.828Z,95.28
2017-12-21T21:39:02.141Z,95.79
2017-12-21T21:45:05.700Z,95.62
2017-12-21T21:51:09.202Z,95.01
2017-12-21T21:57:12.702Z,94.98
2017-12-21T22:03:16.222Z,94.64
2017-12-21T22:09:20.771Z,93.97
2017-12-21T22:15:24.695Z,95.09
2017-12-21T22:21:28.213Z,93.80
2017-12-21T22:27:32.492Z,94.01
2017-12-21T22:33:36.765Z,95.19
2017-12-21T22:39:41.023Z,94.77
2017-12-21T22:45:45.317Z,94.62
2017-12-21T22:51:48.800Z,94.92
2017-12-21T22:57:52.634Z,95.27
2017-12-21T23:03:56.250Z,95.69
2017-12-21T23:09:59.758Z,95.88
2017-12-21T23:16:03.310Z,95.41
2017-12-21T23:22:06.897Z,95.48
2017-12-21T23:28:10.555Z,95.10
2017-12-21T23:34:14.027Z,95.10
2017-12-21T23:40:17.499Z,95.49
2017-12-21T23:46:21.127Z,95.59
2017-12-21T23:52:25.177Z,95.47
2017-12-21T23:58:28.643Z,95.20
